createdAt,value
2023-04-13T00:02:54.212Z,4.30
2023-04-13T00:05:43.104Z,4.30
2023-04-13T00:08:35.895Z,4.20
2023-04-13T00:11:24.495Z,4.20
2023-04-13T00:14:13.076Z,4.10
2023-04-13T00:17:03.103Z,4.10
2023-04-13T00:19:53.885Z,4.10
2023-04-13T00:22:43.226Z,4.10
2023-04-13T00:25:33.436Z,4.10
2023-04-13T00:28:22.894Z,4.10
2023-04-13T00:31:11.526Z,4.10
2023-04-13T00:34:00.143Z,4.10
2023-04-13T00:36:50.033Z,4.20
2023-04-13T00:39:38.585Z,4.20
2023-04-13T00:42:28.935Z,4.10
2023-04-13T00:45:19.215Z,4.10
2023-04-13T00:48:11.073Z,4.00
2023-04-13T00:50:59.913Z,4.00
2023-04-13T00:53:49.726Z,4.00
2023-04-13T00:56:38.366Z,4.00
2023-04-13T00:59:29.527Z,4.00
2023-04-13T01:02:18.242Z,4.00
2023-04-13T01:05:07.501Z,3.90
2023-04-13T01:08:03.640Z,3.90
2023-04-13T01:10:55.854Z,3.90
2023-04-13T01:13:52.202Z,3.80
2023-04-13T01:16:45.889Z,3.80
2023-04-13T01:19:53.995Z,3.80
2023-04-13T01:22:46.030Z,3.80
2023-04-13T01:25:40.896Z,3.90
2023-04-13T01:28:32.265Z,4.00
2023-04-13T01:31:22.601Z,4.00
2023-04-13T01:34:11.533Z,4.10
2023-04-13T01:37:04.799Z,4.20
2023-04-13T01:39:53.600Z,4.30
2023-04-13T01:42:43.198Z,4.40
2023-04-13T01:45:37.783Z,4.40
2023-04-13T01:48:30.899Z,4.50
2023-04-13T01:51:20.946Z,4.50
2023-04-13T01:54:13.861Z,4.50
2023-04-13T01:57:03.467Z,4.50
2023-04-13T01:59:52.116Z,4.50
2023-04-13T02:02:42.291Z,4.60
2023-04-13T02:05:30.970Z,4.50
2023-04-13T02:08:20.823Z,4.60
2023-04-13T02:11:10.280Z,4.60
2023-04-13T02:13:58.982Z,4.60
2023-04-13T02:16:47.786Z,4.60
2023-04-13T02:19:37.805Z,4.60
2023-04-13T02:22:26.788Z,4.60
2023-04-13T02:25:15.878Z,4.60
2023-04-13T02:28:05.002Z,4.60
2023-04-13T02:30:53.591Z,4.70
2023-04-13T02:33:43.645Z,4.70
2023-04-13T02:36:33.657Z,4.70
2023-04-13T02:39:22.239Z,4.70
2023-04-13T02:42:11.930Z,4.80
2023-04-13T02:45:00.552Z,4.70
2023-04-13T02:47:49.213Z,4.80
2023-04-13T02:50:37.835Z,4.80
2023-04-13T02:53:28.284Z,4.80
2023-04-13T02:56:17.249Z,4.80
2023-04-13T02:59:06.492Z,4.90
2023-04-13T03:01:58.677Z,4.90
2023-04-13T03:04:47.606Z,4.90
2023-04-13T03:07:36.956Z,4.90
2023-04-13T03:10:27.500Z,4.90
2023-04-13T03:13:16.162Z,5.00
2023-04-13T03:16:05.233Z,5.00
2023-04-13T03:18:54.629Z,4.90
2023-04-13T03:21:44.510Z,4.90
2023-04-13T03:24:34.330Z,4.90
2023-04-13T03:27:24.397Z,4.90
2023-04-13T03:30:13.715Z,4.90
2023-04-13T03:33:02.511Z,4.90
2023-04-13T03:35:51.250Z,4.90
2023-04-13T03:38:39.910Z,4.90
2023-04-13T03:41:28.478Z,5.00
2023-04-13T03:44:18.460Z,5.00
2023-04-13T03:47:09.688Z,5.00
2023-04-13T03:49:58.255Z,5.00
2023-04-13T03:52:46.841Z,5.00
2023-04-13T03:55:35.471Z,5.00
2023-04-13T03:58:24.142Z,5.00
2023-04-13T04:01:14.165Z,5.00
2023-04-13T04:04:03.205Z,5.10
2023-04-13T04:06:52.259Z,5.10
2023-04-13T04:09:41.058Z,5.00
2023-04-13T04:12:30.180Z,5.10
2023-04-13T04:15:18.784Z,5.10
2023-04-13T04:18:09.298Z,5.20
2023-04-13T04:20:57.926Z,5.10
2023-04-13T04:23:47.465Z,5.20
2023-04-13T04:26:38.263Z,5.20
2023-04-13T04:29:34.443Z,5.20
2023-04-13T04:32:24.304Z,5.20
2023-04-13T04:35:14.588Z,5.20
2023-04-13T04:38:04.509Z,5.10
2023-04-13T04:40:57.618Z,5.10
2023-04-13T04:43:46.425Z,5.10
2023-04-13T04:46:37.645Z,5.00
2023-04-13T04:49:28.211Z,5.00
2023-04-13T04:52:18.733Z,5.00
2023-04-13T04:55:09.262Z,5.00
2023-04-13T04:57:57.863Z,5.00
2023-04-13T05:00:46.918Z,5.00
2023-04-13T05:03:35.479Z,5.00
2023-04-13T05:06:24.082Z,5.00
2023-04-13T05:09:15.179Z,5.00
2023-04-13T05:12:04.485Z,5.10
2023-04-13T05:14:53.074Z,5.20
2023-04-13T05:17:42.202Z,5.20
2023-04-13T05:20:31.051Z,5.20
2023-04-13T05:23:19.614Z,5.30
2023-04-13T05:26:12.156Z,5.40
2023-04-13T05:29:01.372Z,5.40
2023-04-13T05:31:50.190Z,5.40
2023-04-13T05:34:39.266Z,5.50
2023-04-13T05:37:28.372Z,5.60
2023-04-13T05:40:17.193Z,5.60
2023-04-13T05:43:07.174Z,5.60
2023-04-13T05:45:55.967Z,5.70
2023-04-13T05:48:44.708Z,5.70
2023-04-13T05:51:34.221Z,5.70
2023-04-13T05:54:22.798Z,5.70
2023-04-13T05:57:11.601Z,5.80
2023-04-13T06:00:02.128Z,5.80
2023-04-13T06:02:50.997Z,5.80
2023-04-13T06:05:39.789Z,5.80
2023-04-13T06:08:32.768Z,5.80
2023-04-13T06:11:22.167Z,5.90
2023-04-13T06:14:10.703Z,6.00
2023-04-13T06:17:00.897Z,5.90
2023-04-13T06:19:49.622Z,6.00
2023-04-13T06:22:38.275Z,5.90
2023-04-13T06:25:27.227Z,6.00
2023-04-13T06:28:16.188Z,6.00
2023-04-13T06:31:05.088Z,6.00
2023-04-13T06:33:55.510Z,6.10
2023-04-13T06:36:44.235Z,6.30
2023-04-13T06:39:37.697Z,6.30
2023-04-13T06:42:26.742Z,6.30
2023-04-13T06:45:15.609Z,6.40
2023-04-13T06:48:04.494Z,6.40
2023-04-13T06:50:56.706Z,6.50
2023-04-13T06:53:45.257Z,6.50
2023-04-13T06:56:34.107Z,6.50
2023-04-13T06:59:22.681Z,6.50
2023-04-13T07:02:11.702Z,6.50
2023-04-13T07:05:00.463Z,6.60
2023-04-13T07:07:51.227Z,6.60
2023-04-13T07:10:41.029Z,6.60
2023-04-13T07:13:29.667Z,6.60
2023-04-13T07:16:18.279Z,6.50
2023-04-13T07:19:06.913Z,6.40
2023-04-13T07:21:55.542Z,6.40
2023-04-13T07:24:45.763Z,6.50
2023-04-13T07:27:34.834Z,6.60
2023-04-13T07:30:23.580Z,6.70
2023-04-13T07:33:12.330Z,6.80
2023-04-13T07:36:00.922Z,6.70
2023-04-13T07:38:51.332Z,6.60
2023-04-13T07:41:41.358Z,6.60
2023-04-13T07:44:30.090Z,6.70
2023-04-13T07:47:19.655Z,6.80
2023-04-13T07:50:09.735Z,6.90
2023-04-13T07:52:58.339Z,6.90
2023-04-13T07:55:46.975Z,6.80
2023-04-13T07:58:37.473Z,6.80
2023-04-13T08:01:26.458Z,6.90
2023-04-13T08:04:15.316Z,6.90
2023-04-13T08:07:05.241Z,7.00
2023-04-13T08:09:53.845Z,7.00
2023-04-13T08:12:42.423Z,7.10
2023-04-13T08:15:32.470Z,7.10
2023-04-13T08:18:21.216Z,7.20
2023-04-13T08:21:12.133Z,7.30
2023-04-13T08:24:01.473Z,7.30
2023-04-13T08:26:50.093Z,7.20
2023-04-13T08:29:38.971Z,7.10
2023-04-13T08:32:29.209Z,7.20
2023-04-13T08:35:18.459Z,7.30
2023-04-13T08:38:07.620Z,7.40
2023-04-13T08:40:56.708Z,7.50
2023-04-13T08:43:48.008Z,7.60
2023-04-13T08:46:36.708Z,7.70
2023-04-13T08:49:28.423Z,7.80
2023-04-13T08:52:17.161Z,7.80
2023-04-13T08:55:06.312Z,7.80
2023-04-13T08:58:09.711Z,7.70
2023-04-13T09:00:58.762Z,8.00
2023-04-13T09:03:54.742Z,8.10
2023-04-13T09:06:47.968Z,8.20
2023-04-13T09:09:39.322Z,8.20
2023-04-13T09:50:24.192Z,9.70
2023-04-13T09:53:13.325Z,10.00
2023-04-13T09:56:02.759Z,10.50
2023-04-13T09:58:56.443Z,10.30
2023-04-13T10:01:50.262Z,9.90
2023-04-13T10:23:48.446Z,8.90
2023-04-13T10:40:47.813Z,8.90
2023-04-13T11:02:35.293Z,11.90
2023-04-13T11:05:27.470Z,12.00
2023-04-13T11:08:24.625Z,12.20
2023-04-13T11:11:15.129Z,12.30
2023-04-13T11:14:06.461Z,12.10
2023-04-13T11:17:06.524Z,11.80
2023-04-13T11:19:59.451Z,11.30
2023-04-13T11:22:58.778Z,11.10
2023-04-13T11:25:59.075Z,10.70
2023-04-13T11:28:50.324Z,10.30
2023-04-13T11:31:42.410Z,9.40
2023-04-13T11:51:35.854Z,7.10
2023-04-13T14:39:36.532Z,15.60
2023-04-13T14:42:25.792Z,17.00
2023-04-13T14:45:14.522Z,17.00
2023-04-13T14:48:03.204Z,16.80
2023-04-13T14:50:52.960Z,16.10
2023-04-13T14:53:41.664Z,16.20
2023-04-13T14:56:32.055Z,16.10
2023-04-13T14:59:20.949Z,16.00
2023-04-13T15:02:10.609Z,15.80
2023-04-13T15:04:59.361Z,15.40
2023-04-13T15:07:48.577Z,14.90
2023-04-13T15:10:37.419Z,14.10
2023-04-13T15:13:27.367Z,12.90
2023-04-13T15:16:16.377Z,12.20
2023-04-13T15:19:05.063Z,11.80
2023-04-13T15:21:53.612Z,11.80
2023-04-13T15:24:42.196Z,11.80
2023-04-13T15:27:30.941Z,11.90
2023-04-13T15:30:27.438Z,11.90
2023-04-13T15:33:16.009Z,11.80
2023-04-13T15:36:04.718Z,11.60
2023-04-13T15:38:53.293Z,11.70
2023-04-13T15:41:41.844Z,12.00
2023-04-13T15:44:30.449Z,12.20
2023-04-13T15:47:20.437Z,12.10
2023-04-13T15:50:09.808Z,12.10
2023-04-13T15:52:58.366Z,11.90
2023-04-13T15:55:47.317Z,11.90
2023-04-13T15:58:36.186Z,11.90
2023-04-13T16:01:24.968Z,11.80
2023-04-13T16:04:15.389Z,11.70
2023-04-13T16:07:13.780Z,11.70
2023-04-13T16:10:03.152Z,11.60
2023-04-13T16:12:54.774Z,11.30
2023-04-13T16:15:44.723Z,11.10
2023-04-13T16:18:35.903Z,11.00
2023-04-13T16:21:28.353Z,10.90
2023-04-13T16:24:18.013Z,10.70
2023-04-13T16:27:07.480Z,10.60
2023-04-13T16:29:56.065Z,10.60
2023-04-13T16:32:45.827Z,10.50
2023-04-13T16:35:34.460Z,10.50
2023-04-13T16:38:24.463Z,10.40
2023-04-13T16:41:13.094Z,10.30
2023-04-13T16:44:02.357Z,10.10
2023-04-13T16:46:51.035Z,10.10
2023-04-13T16:49:39.666Z,10.10
2023-04-13T16:52:28.298Z,10.20
2023-04-13T16:55:18.315Z,10.20
2023-04-13T16:58:07.543Z,10.20
2023-04-13T17:00:56.183Z,10.20
2023-04-13T17:03:44.923Z,10.10
2023-04-13T17:06:37.518Z,10.10
2023-04-13T17:09:26.148Z,10.10
2023-04-13T17:12:16.155Z,10.00
2023-04-13T17:15:05.344Z,9.80
2023-04-13T17:17:53.962Z,9.70
2023-04-13T17:20:42.764Z,9.60
2023-04-13T17:23:31.504Z,9.40
2023-04-13T17:26:20.152Z,9.30
2023-04-13T17:29:10.173Z,9.20
2023-04-13T17:31:59.159Z,9.10
2023-04-13T17:34:47.805Z,9.00
2023-04-13T17:37:36.392Z,8.90
2023-04-13T17:40:25.080Z,8.80
2023-04-13T17:43:13.735Z,8.70
2023-04-13T17:46:04.000Z,8.60
2023-04-13T17:48:52.588Z,8.50
2023-04-13T17:51:41.157Z,8.50
2023-04-13T17:54:29.851Z,8.40
2023-04-13T17:57:18.866Z,8.30
2023-04-13T18:00:08.828Z,8.20
2023-04-13T18:02:59.049Z,8.10
2023-04-13T18:05:47.880Z,8.00
2023-04-13T18:08:36.710Z,7.90
2023-04-13T18:11:26.065Z,7.90
2023-04-13T18:14:16.076Z,7.80
2023-04-13T18:17:04.839Z,7.80
2023-04-13T18:19:55.021Z,7.70
2023-04-13T18:22:43.561Z,7.80
2023-04-13T18:25:32.765Z,7.80
2023-04-13T18:28:21.342Z,7.80
2023-04-13T18:31:09.956Z,7.80
2023-04-13T18:33:58.981Z,7.80
2023-04-13T18:36:49.233Z,7.70
2023-04-13T18:39:38.293Z,7.60
2023-04-13T18:42:27.305Z,7.60
2023-04-13T18:45:15.963Z,7.50
2023-04-13T18:48:04.904Z,7.50
2023-04-13T18:50:53.557Z,7.50
2023-04-13T18:53:43.507Z,7.50
2023-04-13T18:56:32.082Z,7.50
2023-04-13T18:59:20.896Z,7.30
2023-04-13T19:02:09.521Z,7.30
2023-04-13T19:04:58.166Z,7.30
2023-04-13T19:07:58.708Z,7.30
2023-04-13T19:10:48.932Z,7.30
2023-04-13T19:13:37.493Z,7.30
2023-04-13T19:16:26.450Z,7.10
2023-04-13T19:19:15.888Z,7.00
2023-04-13T19:22:04.550Z,6.90
2023-04-13T19:24:53.119Z,6.80
2023-04-13T19:27:44.637Z,6.80
2023-04-13T19:30:33.384Z,6.70
2023-04-13T19:33:21.960Z,6.60
2023-04-13T19:36:10.581Z,6.50
2023-04-13T19:39:04.603Z,6.50
2023-04-13T19:41:53.437Z,6.50
2023-04-13T19:44:43.369Z,6.40
2023-04-13T19:47:32.127Z,6.40
2023-04-13T19:50:20.731Z,6.40
2023-04-13T19:53:12.383Z,6.40
2023-04-13T19:56:01.493Z,6.40
2023-04-13T19:58:50.064Z,6.30
2023-04-13T20:01:40.829Z,6.20
2023-04-13T20:04:29.571Z,6.10
2023-04-13T20:07:18.490Z,6.00
2023-04-13T20:10:08.675Z,5.90
2023-04-13T20:12:57.234Z,5.90
2023-04-13T20:15:45.982Z,5.80
2023-04-13T20:18:36.013Z,5.70
2023-04-13T20:21:24.652Z,5.70
2023-04-13T20:24:13.335Z,5.60
2023-04-13T20:27:01.901Z,5.60
2023-04-13T20:29:50.684Z,5.60
2023-04-13T20:32:39.653Z,5.60
2023-04-13T20:35:29.645Z,5.60
2023-04-13T20:38:18.230Z,5.60
2023-04-13T20:41:06.792Z,5.50
2023-04-13T20:43:55.409Z,5.60
2023-04-13T20:46:49.907Z,5.50
2023-04-13T20:49:39.295Z,5.50
2023-04-13T20:52:30.048Z,5.40
2023-04-13T20:55:19.895Z,5.30
2023-04-13T20:58:08.499Z,5.30
2023-04-13T21:00:57.371Z,5.30
2023-04-13T21:03:46.541Z,5.30
2023-04-13T21:06:35.409Z,5.30
2023-04-13T21:09:25.551Z,5.20
2023-04-13T21:12:14.135Z,5.10
2023-04-13T21:15:03.422Z,5.00
2023-04-13T21:17:52.105Z,5.00
2023-04-13T21:20:41.082Z,5.00
2023-04-13T21:23:29.678Z,5.10
2023-04-13T21:26:20.282Z,5.10
2023-04-13T21:29:10.260Z,5.10
2023-04-13T21:31:59.246Z,5.20
2023-04-13T21:34:47.957Z,5.10
2023-04-13T21:37:36.582Z,5.10
2023-04-13T21:40:25.374Z,5.00
2023-04-13T21:43:15.698Z,5.10
2023-04-13T21:46:04.350Z,5.00
2023-04-13T21:48:53.083Z,4.90
2023-04-13T21:51:41.649Z,4.80
2023-04-13T21:54:30.246Z,4.70
2023-04-13T21:57:18.833Z,4.70
2023-04-13T22:00:11.700Z,4.60
2023-04-13T22:03:00.622Z,4.50
2023-04-13T22:05:49.384Z,4.50
2023-04-13T22:08:38.459Z,4.40
2023-04-13T22:11:27.097Z,4.40
2023-04-13T22:14:15.689Z,4.30
2023-04-13T22:17:05.663Z,4.40
2023-04-13T22:19:54.279Z,4.40
2023-04-13T22:22:42.883Z,4.40
2023-04-13T22:25:31.477Z,4.40
2023-04-13T22:28:20.149Z,4.40
2023-04-13T22:31:09.235Z,4.30
2023-04-13T22:33:59.408Z,4.30
2023-04-13T22:36:47.961Z,4.40
2023-04-13T22:39:36.556Z,4.30
2023-04-13T22:42:25.136Z,4.40
2023-04-13T22:45:13.707Z,4.40
2023-04-13T22:48:02.376Z,4.30
